Time;durP1;ratioP1;P1;durP2;ratioP2;P2;SDS_P1;SDS_P2;PMS_P1;PMS_P2;Temp;Humidity;BMP_temperature;BMP_pressure;BME280_temperature;BME280_humidity;BME280_pressure;Samples;Min_cycle;Max_cycle;Signal;HPM_P1;HPM_P2
2022/04/06 00:00:31;;;;;;;11.10;9.07;;;9.60;99.90;;;;;;5053918;28;20668;-74
2022/04/06 00:02:57;;;;;;;11.73;9.60;;;9.60;99.90;;;;;;5053226;28;20295;-74
2022/04/06 00:05:23;;;;;;;14.67;9.50;;;9.60;99.90;;;;;;5053142;28;20286;-73
2022/04/06 00:07:49;;;;;;;13.60;10.37;;;9.60;99.90;;;;;;5052436;28;20262;-74
2022/04/06 00:10:14;;;;;;;12.80;9.30;;;9.60;99.90;;;;;;5052612;28;20203;-74
2022/04/06 00:12:40;;;;;;;11.13;9.23;;;9.60;99.90;;;;;;5053588;28;20945;-74
2022/04/06 00:15:08;;;;;;;12.00;8.83;;;9.60;99.90;;;;;;5046262;28;20196;-74
2022/04/06 00:17:34;;;;;;;12.17;9.17;;;9.60;99.90;;;;;;5052710;28;20211;-74
2022/04/06 00:20:00;;;;;;;12.20;9.23;;;9.60;99.90;;;;;;5050927;28;20215;-74
2022/04/06 00:22:26;;;;;;;14.43;8.83;;;9.60;99.90;;;;;;5051603;28;20226;-74
2022/04/06 00:24:51;;;;;;;11.77;9.03;;;9.60;99.90;;;;;;5052712;28;20184;-73
2022/04/06 00:27:18;;;;;;;10.33;8.10;;;9.60;99.90;;;;;;5053182;28;20744;-73
2022/04/06 00:29:43;;;;;;;10.73;8.77;;;9.60;99.90;;;;;;5051705;28;20216;-73
2022/04/06 00:32:09;;;;;;;10.00;8.07;;;9.60;99.90;;;;;;5052670;28;20214;-73
2022/04/06 00:37:19;;;;;;;10.57;8.37;;;9.60;99.90;;;;;;5052609;28;20230;-74
2022/04/06 00:39:44;;;;;;;12.07;8.93;;;9.60;99.90;;;;;;5050313;28;20191;-73
2022/04/06 00:42:10;;;;;;;11.33;9.23;;;9.60;99.90;;;;;;5052865;28;20179;-73
2022/04/06 00:44:35;;;;;;;10.97;9.40;;;9.60;99.90;;;;;;5045592;28;20216;-73
2022/04/06 00:47:05;;;;;;;13.03;10.03;;;9.60;99.90;;;;;;5052444;28;20701;-73
2022/04/06 00:49:31;;;;;;;16.80;11.53;;;9.60;99.90;;;;;;5050142;28;20203;-73
2022/04/06 00:51:59;;;;;;;12.47;9.70;;;9.60;99.90;;;;;;5052324;28;20254;-73
2022/04/06 00:54:25;;;;;;;13.77;10.43;;;9.60;99.90;;;;;;5052632;28;20176;-73
2022/04/06 00:56:51;;;;;;;14.00;10.77;;;9.60;99.90;;;;;;5050739;28;20707;-73
2022/04/06 00:59:18;;;;;;;13.03;10.70;;;9.60;99.90;;;;;;5050066;28;20691;-73
2022/04/06 01:01:45;;;;;;;13.77;11.00;;;9.60;99.90;;;;;;5051967;28;20203;-73
2022/04/06 01:04:11;;;;;;;14.57;11.63;;;9.60;99.90;;;;;;5052152;28;20223;-72
2022/04/06 01:06:37;;;;;;;13.83;11.40;;;9.60;99.90;;;;;;5052350;28;20282;-73
2022/04/06 01:09:03;;;;;;;14.90;11.23;;;9.60;99.90;;;;;;5049885;28;20732;-73
2022/04/06 01:11:28;;;;;;;13.43;10.90;;;9.60;99.90;;;;;;5050437;28;20424;-73
2022/04/06 01:13:55;;;;;;;14.93;11.50;;;9.60;99.90;;;;;;5048750;28;20212;-73
2022/04/06 01:16:20;;;;;;;13.60;10.60;;;9.60;99.90;;;;;;5048272;28;20873;-73
2022/04/06 01:18:46;;;;;;;14.70;10.87;;;9.60;99.90;;;;;;5051112;28;20176;-73
2022/04/06 01:21:12;;;;;;;15.80;11.97;;;9.60;99.90;;;;;;5051988;28;20239;-74
2022/04/06 01:23:41;;;;;;;14.93;11.73;;;9.60;99.90;;;;;;5051566;28;20761;-73
2022/04/06 01:26:07;;;;;;;14.20;10.90;;;9.60;99.90;;;;;;5051342;28;20213;-73
2022/04/06 01:28:32;;;;;;;15.40;11.23;;;9.60;99.90;;;;;;5050777;28;20207;-74
2022/04/06 01:30:58;;;;;;;14.60;12.03;;;9.60;99.90;;;;;;5051531;28;20187;-73
2022/04/06 01:33:23;;;;;;;13.17;10.83;;;9.60;99.90;;;;;;5051710;28;20234;-73
2022/04/06 01:35:49;;;;;;;14.20;11.27;;;9.60;99.90;;;;;;5051306;28;20207;-73
2022/04/06 01:38:14;;;;;;;13.47;11.03;;;9.60;99.90;;;;;;5049043;28;20298;-74
2022/04/06 01:40:40;;;;;;;14.90;11.00;;;9.60;99.90;;;;;;5050873;28;20659;-73
2022/04/06 01:43:06;;;;;;;14.57;10.97;;;9.60;99.90;;;;;;5043053;28;20211;-74
2022/04/06 01:45:31;;;;;;;14.57;12.17;;;9.70;99.90;;;;;;5044613;28;20188;-73
2022/04/06 01:47:57;;;;;;;14.33;12.13;;;9.70;99.90;;;;;;5050640;28;20207;-72
2022/04/06 01:53:06;;;;;;;14.80;11.83;;;9.60;99.90;;;;;;5050906;28;20210;-73
2022/04/06 01:55:32;;;;;;;14.30;11.47;;;9.70;99.90;;;;;;5051036;28;20211;-73
2022/04/06 01:57:59;;;;;;;17.07;12.10;;;9.70;99.90;;;;;;5049089;28;20187;-71
2022/04/06 02:00:24;;;;;;;15.67;12.67;;;9.70;99.90;;;;;;5049974;28;20196;-73
2022/04/06 02:02:51;;;;;;;13.93;11.40;;;9.70;99.90;;;;;;5050124;28;20207;-74
2022/04/06 02:05:18;;;;;;;14.83;11.37;;;9.70;99.90;;;;;;5050962;28;20214;-72
2022/04/06 02:07:47;;;;;;;15.87;11.47;;;9.70;99.90;;;;;;5050172;28;20227;-72
2022/04/06 02:10:14;;;;;;;14.87;12.17;;;9.70;99.90;;;;;;5050335;28;20211;-73
2022/04/06 02:12:40;;;;;;;14.80;11.87;;;9.70;99.90;;;;;;5049763;28;20172;-72
2022/04/06 02:15:11;;;;;;;15.80;12.40;;;9.70;99.90;;;;;;5042825;28;20283;-72
2022/04/06 02:17:37;;;;;;;15.77;12.13;;;9.60;99.90;;;;;;5050814;28;20763;-73
2022/04/06 02:20:04;;;;;;;14.17;11.13;;;9.70;99.90;;;;;;5049761;28;20251;-73
2022/04/06 02:22:29;;;;;;;14.80;11.90;;;9.70;99.90;;;;;;5050714;28;20609;-73
2022/04/06 02:24:55;;;;;;;15.13;11.07;;;9.70;99.90;;;;;;5050515;28;20172;-73
2022/04/06 02:27:20;;;;;;;15.73;12.20;;;9.60;99.90;;;;;;5028649;28;20212;-74
2022/04/06 02:29:46;;;;;;;15.53;12.30;;;9.60;99.90;;;;;;5021741;28;20573;-74
2022/04/06 02:32:11;;;;;;;17.37;12.37;;;9.60;99.90;;;;;;5030465;28;20211;-72
2022/04/06 02:34:37;;;;;;;16.33;12.17;;;9.60;99.90;;;;;;5030524;28;20330;-73
2022/04/06 02:37:03;;;;;;;14.03;11.17;;;9.60;99.90;;;;;;5031067;28;20247;-73
2022/04/06 02:39:29;;;;;;;16.43;11.93;;;9.60;99.90;;;;;;5030185;28;20630;-73
2022/04/06 02:41:54;;;;;;;15.07;11.60;;;9.60;99.90;;;;;;5030556;28;20292;-73
2022/04/06 02:44:20;;;;;;;15.07;11.43;;;9.60;99.90;;;;;;5030925;28;20208;-73
2022/04/06 02:46:47;;;;;;;15.50;12.43;;;9.60;99.90;;;;;;5038311;28;20712;-72
2022/04/06 02:49:14;;;;;;;15.13;11.47;;;9.60;99.90;;;;;;5053620;28;20218;-73
2022/04/06 02:51:39;;;;;;;13.83;11.33;;;9.60;99.90;;;;;;5054452;28;20179;-73
2022/04/06 02:54:05;;;;;;;14.27;11.47;;;9.60;99.90;;;;;;5054098;28;20611;-72
2022/04/06 02:56:31;;;;;;;14.33;11.07;;;9.60;99.90;;;;;;5046933;28;20298;-72
2022/04/06 02:58:57;;;;;;;14.53;11.33;;;9.60;99.90;;;;;;5033577;28;20204;-72
2022/04/06 03:01:23;;;;;;;18.13;12.53;;;9.60;99.90;;;;;;5032511;28;20598;-72
2022/04/06 03:03:49;;;;;;;16.27;12.20;;;9.60;99.90;;;;;;5034339;28;20180;-72
2022/04/06 03:06:15;;;;;;;14.00;11.07;;;9.60;99.90;;;;;;5034785;28;20176;-73
2022/04/06 03:08:40;;;;;;;13.97;10.83;;;9.70;99.90;;;;;;5031990;28;20413;-72
2022/04/06 03:11:06;;;;;;;15.27;11.60;;;9.70;99.90;;;;;;5032587;28;20284;-72
2022/04/06 03:13:31;;;;;;;16.17;12.17;;;9.70;99.90;;;;;;5034169;28;20215;-73
2022/04/06 03:15:57;;;;;;;13.90;11.00;;;9.70;99.90;;;;;;5034121;28;20217;-73
2022/04/06 03:18:23;;;;;;;15.40;11.13;;;9.70;99.90;;;;;;5033482;28;20607;-72
2022/04/06 03:20:49;;;;;;;14.43;11.17;;;9.70;99.90;;;;;;5034209;28;20204;-72
2022/04/06 03:23:15;;;;;;;14.37;10.50;;;9.70;99.90;;;;;;5034102;28;20200;-72
2022/04/06 03:25:42;;;;;;;16.30;11.83;;;9.70;99.90;;;;;;5033921;28;20700;-72
2022/04/06 03:28:08;;;;;;;14.43;10.70;;;9.60;99.90;;;;;;5047934;28;20246;-72
2022/04/06 03:30:33;;;;;;;12.47;9.83;;;9.70;99.90;;;;;;5052687;28;20258;-72
2022/04/06 03:32:59;;;;;;;14.77;10.30;;;9.70;99.90;;;;;;5054068;28;20203;-73
2022/04/06 03:35:25;;;;;;;12.60;9.50;;;9.70;99.90;;;;;;5052466;28;20203;-73
2022/04/06 03:37:51;;;;;;;13.77;9.53;;;9.70;99.90;;;;;;5049026;28;20713;-73
2022/04/06 03:40:17;;;;;;;15.90;10.27;;;9.70;99.90;;;;;;5033512;28;20231;-72
2022/04/06 03:42:42;;;;;;;14.33;10.07;;;9.60;99.90;;;;;;5033520;28;20180;-73
2022/04/06 03:45:09;;;;;;;15.40;10.93;;;9.60;99.90;;;;;;5034415;28;20193;-72
2022/04/06 03:47:35;;;;;;;14.37;9.07;;;9.70;99.90;;;;;;5033286;28;20220;-72
2022/04/06 03:50:03;;;;;;;13.90;9.57;;;9.60;99.90;;;;;;5032731;28;20205;-73
2022/04/06 03:52:29;;;;;;;13.13;9.80;;;9.60;99.90;;;;;;5033330;28;20204;-72
2022/04/06 03:54:55;;;;;;;13.03;9.50;;;9.60;99.90;;;;;;5033278;28;20218;-72
2022/04/06 03:57:20;;;;;;;14.50;9.37;;;9.60;99.90;;;;;;5043377;28;20202;-72
2022/04/06 03:59:46;;;;;;;16.10;9.50;;;9.60;99.90;;;;;;5052538;28;20290;-72
2022/04/06 04:02:11;;;;;;;12.30;9.03;;;9.60;99.90;;;;;;5051937;28;20204;-72
2022/04/06 04:04:37;;;;;;;13.90;10.13;;;9.60;99.90;;;;;;5049300;28;20321;-72
2022/04/06 04:07:03;;;;;;;12.23;8.43;;;9.60;99.90;;;;;;5038935;28;20215;-72
2022/04/06 04:09:29;;;;;;;14.03;8.93;;;9.60;99.90;;;;;;5052912;28;20172;-73
2022/04/06 04:11:56;;;;;;;15.20;8.93;;;9.60;99.90;;;;;;5053083;28;20707;-72
2022/04/06 04:14:22;;;;;;;15.87;9.70;;;9.60;99.90;;;;;;5053908;28;20580;-71
2022/04/06 04:16:48;;;;;;;12.37;8.80;;;9.60;99.90;;;;;;5052358;28;20579;-72
2022/04/06 04:19:13;;;;;;;14.20;8.80;;;9.50;99.90;;;;;;5037113;28;20212;-72
2022/04/06 04:21:39;;;;;;;15.53;8.50;;;9.50;99.90;;;;;;5032462;28;20211;-72
2022/04/06 04:24:08;;;;;;;13.43;9.00;;;9.60;99.90;;;;;;5031965;28;20207;-73
2022/04/06 04:26:34;;;;;;;10.83;8.23;;;9.60;99.90;;;;;;5034063;28;20292;-72
2022/04/06 04:29:00;;;;;;;12.00;8.47;;;9.60;99.90;;;;;;5038761;28;20216;-73
2022/04/06 04:31:26;;;;;;;14.00;8.63;;;9.50;99.90;;;;;;5032884;28;20235;-73
2022/04/06 04:33:51;;;;;;;15.70;9.70;;;9.50;99.90;;;;;;5036161;28;20180;-72
2022/04/06 04:36:17;;;;;;;15.67;9.73;;;9.50;99.90;;;;;;5051746;28;20168;-72
2022/04/06 04:38:43;;;;;;;14.70;9.13;;;9.50;99.90;;;;;;5050618;28;20290;-73
2022/04/06 04:41:09;;;;;;;16.30;9.70;;;9.50;99.90;;;;;;5051179;28;20222;-73
2022/04/06 04:43:36;;;;;;;12.43;9.23;;;9.50;99.90;;;;;;5052467;28;20219;-74
2022/04/06 04:46:02;;;;;;;16.97;9.63;;;9.60;99.90;;;;;;5038735;28;20223;-72
2022/04/06 04:48:28;;;;;;;11.20;8.87;;;9.60;99.90;;;;;;5040113;28;20703;-73
2022/04/06 04:50:53;;;;;;;15.63;9.50;;;9.60;99.90;;;;;;5044321;28;20203;-73
2022/04/06 04:53:19;;;;;;;14.43;10.23;;;9.50;99.90;;;;;;5043982;28;20203;-73
2022/04/06 04:55:44;;;;;;;15.70;10.03;;;9.60;99.90;;;;;;5040645;28;20606;-73
2022/04/06 04:58:10;;;;;;;16.37;10.67;;;9.60;99.90;;;;;;5039712;28;20219;-73
2022/04/06 05:00:35;;;;;;;15.70;11.23;;;9.60;99.90;;;;;;5042692;28;20629;-72
2022/04/06 05:03:02;;;;;;;16.73;10.73;;;9.60;99.90;;;;;;5044402;28;20207;-73
2022/04/06 05:05:28;;;;;;;15.13;10.03;;;9.60;99.90;;;;;;5042522;28;20204;-74
2022/04/06 05:07:57;;;;;;;16.60;10.87;;;9.50;99.90;;;;;;5039348;28;20204;-74
2022/04/06 05:10:22;;;;;;;16.30;10.73;;;9.60;99.90;;;;;;5040425;28;20424;-74
2022/04/06 05:12:48;;;;;;;17.67;10.97;;;9.60;99.90;;;;;;5043848;28;20668;-73
2022/04/06 05:15:14;;;;;;;18.83;11.33;;;9.60;99.90;;;;;;5041308;28;20256;-74
2022/04/06 05:17:39;;;;;;;14.73;10.30;;;9.60;99.90;;;;;;5040910;28;20223;-73
2022/04/06 05:20:10;;;;;;;18.00;10.13;;;9.60;99.90;;;;;;5043055;28;20294;-74
2022/04/06 05:22:35;;;;;;;14.03;10.07;;;9.60;99.90;;;;;;5041340;28;20222;-74
2022/04/06 05:25:04;;;;;;;14.43;10.17;;;9.60;99.90;;;;;;5038695;28;20682;-73
2022/04/06 05:27:30;;;;;;;14.93;9.80;;;9.60;99.90;;;;;;5041726;28;20199;-75
2022/04/06 05:29:55;;;;;;;19.27;11.10;;;9.60;99.90;;;;;;5041527;28;20219;-74
2022/04/06 05:32:21;;;;;;;15.33;9.23;;;9.60;99.90;;;;;;5042015;28;20204;-73
2022/04/06 05:34:46;;;;;;;13.57;9.80;;;9.70;99.90;;;;;;5035262;28;20389;-72
2022/04/06 05:37:12;;;;;;;18.93;9.07;;;9.80;99.90;;;;;;5042633;28;20549;-75
2022/04/06 05:39:37;;;;;;;14.63;9.83;;;9.80;99.90;;;;;;5040341;28;20208;-74
2022/04/06 05:42:03;;;;;;;15.50;9.17;;;9.90;99.90;;;;;;5039671;28;20196;-73
2022/04/06 05:44:29;;;;;;;13.67;9.47;;;10.00;99.90;;;;;;5040721;28;20215;-73
2022/04/06 05:46:54;;;;;;;14.57;10.10;;;10.10;99.90;;;;;;5042746;28;20212;-73
2022/04/06 05:49:20;;;;;;;14.50;10.60;;;10.00;99.90;;;;;;5039047;28;20205;-73
2022/04/06 05:51:45;;;;;;;13.93;9.30;;;10.00;99.90;;;;;;5042708;28;20283;-73
2022/04/06 05:54:11;;;;;;;13.00;9.50;;;10.00;99.90;;;;;;5043397;28;20176;-73
2022/04/06 05:56:36;;;;;;;14.03;10.07;;;10.00;99.90;;;;;;5040600;28;20230;-73
2022/04/06 05:59:02;;;;;;;11.70;9.00;;;10.00;99.90;;;;;;5038789;28;20239;-74
2022/04/06 06:01:27;;;;;;;16.27;10.33;;;10.00;99.90;;;;;;5040152;28;20220;-74
2022/04/06 06:03:53;;;;;;;14.77;9.40;;;10.00;99.90;;;;;;5041412;28;20229;-73
2022/04/06 06:06:18;;;;;;;16.27;9.67;;;10.00;99.90;;;;;;5043003;28;20194;-74
2022/04/06 06:08:44;;;;;;;14.43;9.93;;;10.00;99.90;;;;;;5037398;28;20581;-72
2022/04/06 06:11:10;;;;;;;15.33;10.03;;;10.00;99.90;;;;;;5039143;28;20208;-73
2022/04/06 06:13:35;;;;;;;16.07;9.53;;;10.10;99.90;;;;;;5039626;28;20219;-73
2022/04/06 06:16:01;;;;;;;19.00;11.50;;;10.00;99.90;;;;;;5037430;28;20621;-74
2022/04/06 06:18:29;;;;;;;15.47;10.37;;;10.00;99.90;;;;;;5044479;28;20191;-71
2022/04/06 06:21:00;;;;;;;15.67;10.57;;;10.00;99.90;;;;;;5038291;28;20200;-73
2022/04/06 06:23:26;;;;;;;19.20;10.87;;;10.00;99.90;;;;;;5038358;28;20224;-74
2022/04/06 06:25:52;;;;;;;19.23;12.13;;;10.00;99.90;;;;;;5042499;28;20206;-74
2022/04/06 06:28:17;;;;;;;20.73;12.50;;;10.00;99.90;;;;;;5041371;28;20211;-74
2022/04/06 06:30:43;;;;;;;19.70;12.87;;;10.00;99.90;;;;;;5039221;28;20215;-73
2022/04/06 06:33:08;;;;;;;20.83;13.33;;;10.00;99.90;;;;;;5039488;28;20186;-73
2022/04/06 06:35:34;;;;;;;22.63;12.33;;;10.10;99.90;;;;;;5039332;28;20212;-74
2022/04/06 06:37:59;;;;;;;20.30;13.00;;;10.30;99.90;;;;;;5041716;28;20227;-73
2022/04/06 06:40:26;;;;;;;22.27;13.27;;;10.40;99.90;;;;;;5041366;28;20211;-74
2022/04/06 06:42:52;;;;;;;20.77;12.80;;;10.60;99.90;;;;;;5038849;28;20179;-73
2022/04/06 06:45:18;;;;;;;19.67;12.47;;;10.70;99.90;;;;;;5039574;28;20612;-73
2022/04/06 06:47:45;;;;;;;25.03;13.97;;;10.80;99.90;;;;;;5038368;28;20215;-73
2022/04/06 06:50:12;;;;;;;20.87;13.70;;;10.80;99.90;;;;;;5036817;28;20709;-73
2022/04/06 06:52:38;;;;;;;23.50;14.63;;;11.00;99.90;;;;;;5040928;28;20212;-74
2022/04/06 06:55:05;;;;;;;25.97;14.83;;;11.10;99.90;;;;;;5042182;28;20208;-74
2022/04/06 06:57:31;;;;;;;24.73;15.00;;;11.00;99.90;;;;;;5039427;28;20198;-73
2022/04/06 06:59:57;;;;;;;20.97;14.30;;;11.00;99.90;;;;;;5036529;28;20209;-73
2022/04/06 07:02:22;;;;;;;25.13;14.37;;;11.00;99.90;;;;;;5038789;28;20216;-74
2022/04/06 07:04:48;;;;;;;26.10;15.70;;;10.90;99.90;;;;;;5042053;28;20203;-73
2022/04/06 07:07:13;;;;;;;20.97;15.40;;;10.90;99.90;;;;;;5042018;28;20264;-73
2022/04/06 07:09:38;;;;;;;27.60;15.03;;;10.80;99.90;;;;;;5039132;28;20183;-73
2022/04/06 07:12:04;;;;;;;23.87;15.70;;;10.90;99.90;;;;;;5037198;28;20219;-73
2022/04/06 07:14:32;;;;;;;29.53;17.30;;;11.00;99.90;;;;;;5038231;28;20208;-73
2022/04/06 07:16:58;;;;;;;26.83;17.00;;;11.00;99.90;;;;;;5040137;28;20355;-74
2022/04/06 07:19:24;;;;;;;25.50;15.97;;;11.10;99.90;;;;;;5036831;28;20212;-73
2022/04/06 07:21:49;;;;;;;21.90;14.97;;;11.10;99.90;;;;;;5040512;28;20277;-73
2022/04/06 07:24:15;;;;;;;24.53;15.27;;;11.20;99.90;;;;;;5041036;28;20225;-75
2022/04/06 07:26:41;;;;;;;25.00;15.00;;;11.20;99.90;;;;;;5037351;28;20224;-73
2022/04/06 07:29:11;;;;;;;25.80;15.03;;;11.30;99.90;;;;;;5037787;28;20215;-73
2022/04/06 07:31:39;;;;;;;28.23;15.27;;;11.30;99.90;;;;;;5041403;28;20270;-74
2022/04/06 07:34:05;;;;;;;24.53;15.67;;;11.40;99.90;;;;;;5045518;28;20231;-74
2022/04/06 07:36:34;;;;;;;24.50;14.97;;;11.60;99.90;;;;;;5044222;28;20289;-73
2022/04/06 07:39:02;;;;;;;23.30;14.50;;;11.90;99.90;;;;;;5041386;28;20328;-73
2022/04/06 07:41:28;;;;;;;23.40;13.70;;;12.00;99.90;;;;;;5042695;28;20697;-74
2022/04/06 07:43:53;;;;;;;20.60;13.43;;;12.10;99.90;;;;;;5044235;28;20208;-73
2022/04/06 07:46:19;;;;;;;18.67;12.37;;;12.20;99.90;;;;;;5037574;28;20216;-74
2022/04/06 07:48:44;;;;;;;17.37;11.53;;;12.30;99.90;;;;;;5043097;28;20180;-73
2022/04/06 07:51:10;;;;;;;17.80;10.77;;;12.80;99.90;;;;;;5045530;28;20211;-73
2022/04/06 07:53:35;;;;;;;17.90;10.90;;;13.30;99.90;;;;;;5042687;28;20208;-74
2022/04/06 07:56:01;;;;;;;18.50;11.07;;;13.50;99.90;;;;;;5041690;28;20223;-72
2022/04/06 07:58:27;;;;;;;13.40;10.20;;;13.40;99.90;;;;;;5041521;28;20239;-73
2022/04/06 08:00:52;;;;;;;21.93;10.90;;;13.50;99.90;;;;;;5043647;28;20249;-74
2022/04/06 08:03:18;;;;;;;15.93;10.30;;;13.60;99.90;;;;;;5044199;28;20221;-74
2022/04/06 08:05:43;;;;;;;15.10;10.83;;;13.60;99.90;;;;;;5041772;28;20208;-74
2022/04/06 08:08:09;;;;;;;18.90;10.60;;;13.50;99.90;;;;;;5039379;28;20200;-73
2022/04/06 08:10:34;;;;;;;15.23;9.97;;;13.50;99.90;;;;;;5041711;28;20217;-75
2022/04/06 08:13:00;;;;;;;15.87;10.17;;;13.50;99.90;;;;;;5043525;28;20692;-74
2022/04/06 08:15:25;;;;;;;15.37;9.57;;;13.70;99.90;;;;;;5041417;28;20180;-74
2022/04/06 08:17:51;;;;;;;15.35;9.85;;;13.70;99.90;;;;;;5044179;28;20235;-74
2022/04/06 08:20:18;;;;;;;14.27;9.85;;;13.70;99.90;;;;;;5044159;28;20235;-73
2022/04/06 08:22:45;;;;;;;12.73;9.13;;;13.90;99.90;;;;;;5041260;28;20216;-74
2022/04/06 08:25:13;;;;;;;14.17;8.73;;;14.00;99.90;;;;;;5039741;28;20204;-74
2022/04/06 08:27:40;;;;;;;16.30;8.20;;;14.20;99.90;;;;;;5043454;28;20196;-73
2022/04/06 08:30:07;;;;;;;13.52;8.43;;;14.30;99.90;;;;;;5044050;28;20645;-74
2022/04/06 08:32:33;;;;;;;14.20;8.13;;;14.10;99.90;;;;;;5041370;28;20207;-73
2022/04/06 08:34:58;;;;;;;14.80;8.30;;;13.80;99.90;;;;;;5041107;28;20259;-74
2022/04/06 08:37:25;;;;;;;12.73;8.07;;;13.40;99.90;;;;;;5072639;22;20235;-80
2022/04/06 08:39:50;;;;;;;14.63;9.00;;;13.20;99.90;;;;;;5060713;28;20203;-79
2022/04/06 08:42:16;;;;;;;12.47;8.60;;;12.90;99.90;;;;;;5060314;28;20194;-79
2022/04/06 08:44:43;;;;;;;14.30;8.90;;;12.60;99.90;;;;;;5052690;28;20196;-76
2022/04/06 08:47:10;;;;;;;17.03;9.40;;;12.50;99.90;;;;;;5042477;28;20609;-79
2022/04/06 08:49:39;;;;;;;12.13;8.00;;;12.30;99.90;;;;;;5052885;28;20211;-79
2022/04/06 08:52:06;;;;;;;14.93;8.03;;;12.40;99.90;;;;;;5058653;28;20207;-79
2022/04/06 08:54:31;;;;;;;10.77;7.27;;;12.40;99.90;;;;;;5061238;28;20172;-79
2022/04/06 08:56:57;;;;;;;14.83;7.53;;;12.40;99.90;;;;;;5060861;28;20208;-79
2022/04/06 08:59:23;;;;;;;12.27;6.83;;;12.40;99.90;;;;;;5061153;28;20215;-79
2022/04/06 09:01:48;;;;;;;12.90;7.97;;;12.50;99.90;;;;;;5063597;28;20208;-79
2022/04/06 09:04:14;;;;;;;16.27;6.50;;;12.70;99.90;;;;;;5063680;28;20302;-79
2022/04/06 09:06:41;;;;;;;10.50;6.37;;;12.70;99.90;;;;;;5063657;28;20215;-79
2022/04/06 09:09:08;;;;;;;12.77;7.00;;;12.80;99.90;;;;;;5062098;28;20259;-79
2022/04/06 09:11:42;;;;;;;9.30;6.73;;;13.00;99.90;;;;;;5063047;28;20322;-79
2022/04/06 09:14:08;;;;;;;10.63;7.20;;;13.00;99.90;;;;;;5062804;28;20287;-79
2022/04/06 09:16:33;;;;;;;12.43;6.90;;;13.10;99.90;;;;;;5059074;28;20207;-79
2022/04/06 09:19:12;;;;;;;10.53;6.60;;;12.90;99.90;;;;;;5062122;28;20257;-78
2022/04/06 09:21:43;;;;;;;11.80;6.37;;;12.90;99.90;;;;;;5062063;28;20230;-78
2022/04/06 09:24:16;;;;;;;8.83;6.03;;;13.00;99.90;;;;;;5065154;28;20204;-79
2022/04/06 09:26:42;;;;;;;11.10;6.80;;;13.30;99.90;;;;;;5061064;28;20282;-79
2022/04/06 09:29:11;;;;;;;9.43;6.63;;;13.30;99.90;;;;;;5065171;28;20758;-79
2022/04/06 09:31:39;;;;;;;15.07;7.10;;;13.40;99.90;;;;;;5060149;28;20217;-78
2022/04/06 09:34:05;;;;;;;15.43;6.93;;;13.50;99.90;;;;;;5062047;28;20207;-79
2022/04/06 09:36:32;;;;;;;13.23;7.43;;;13.60;99.90;;;;;;5060089;28;20180;-77
2022/04/06 09:38:58;;;;;;;12.07;6.73;;;13.50;99.90;;;;;;5059488;28;20211;-77
2022/04/06 09:41:25;;;;;;;15.13;6.50;;;13.50;99.90;;;;;;5061863;28;20314;-78
2022/04/06 09:43:52;;;;;;;11.70;7.13;;;13.60;99.90;;;;;;5061637;28;20211;-79
2022/04/06 09:49:19;;;;;;;10.67;6.73;;;13.40;99.90;;;;;;5060603;28;20365;-78
2022/04/06 09:51:50;;;;;;;10.43;6.60;;;13.20;99.90;;;;;;5063123;28;20175;-77
2022/04/06 09:54:16;;;;;;;12.60;6.63;;;13.10;99.90;;;;;;5074517;28;20198;-78
2022/04/06 09:56:44;;;;;;;13.03;7.90;;;13.00;99.90;;;;;;5064130;28;20632;-78
2022/04/06 09:59:11;;;;;;;10.50;6.70;;;13.00;99.90;;;;;;5061845;28;20212;-79
2022/04/06 10:01:45;;;;;;;13.07;7.00;;;13.00;99.90;;;;;;5064997;28;20230;-78
2022/04/06 10:04:12;;;;;;;10.70;6.73;;;13.00;99.90;;;;;;5065659;28;20222;-78
2022/04/06 10:06:40;;;;;;;11.13;7.47;;;13.00;99.90;;;;;;5063169;28;20191;-78
2022/04/06 10:09:08;;;;;;;13.57;7.30;;;13.00;99.90;;;;;;5069916;28;20227;-79
2022/04/06 10:11:35;;;;;;;9.70;6.37;;;13.20;99.90;;;;;;5062497;28;20219;-78
2022/04/06 10:14:04;;;;;;;13.27;7.13;;;13.40;99.90;;;;;;5057854;28;20235;-79
2022/04/06 10:16:30;;;;;;;10.90;7.70;;;13.40;99.90;;;;;;5037713;28;20216;-78
2022/04/06 10:18:58;;;;;;;13.37;7.80;;;13.40;99.90;;;;;;5035025;28;20203;-80
2022/04/06 10:21:59;;;;;;;11.87;7.83;;;13.30;99.90;;;;;;5038050;28;20200;-80
2022/04/06 10:24:53;;;;;;;14.53;7.67;;;13.10;99.90;;;;;;5043766;28;20204;-79
2022/04/06 10:27:29;;;;;;;14.00;8.53;;;13.00;99.90;;;;;;5044063;28;20273;-79
2022/04/06 10:30:22;;;;;;;18.03;8.37;;;12.90;99.90;;;;;;5036504;28;20287;-79
2022/04/06 10:32:52;;;;;;;12.83;7.67;;;13.00;99.90;;;;;;5038610;28;20242;-81
2022/04/06 10:35:24;;;;;;;11.77;7.23;;;13.10;99.90;;;;;;5043026;28;20227;-81
2022/04/06 10:38:14;;;;;;;11.30;6.80;;;13.20;99.90;;;;;;5037924;28;20220;-80
2022/04/06 10:40:46;;;;;;;15.73;8.00;;;13.30;99.90;;;;;;5047386;28;20232;-81
2022/04/06 10:43:43;;;;;;;11.80;7.67;;;13.60;99.90;;;;;;5040351;28;20269;-79
2022/04/06 10:46:16;;;;;;;11.63;6.17;;;13.90;99.90;;;;;;5036707;28;20303;-81
2022/04/06 10:48:57;;;;;;;13.77;7.28;;;14.20;99.90;;;;;;5043489;28;20211;-79
2022/04/06 10:51:33;;;;;;;13.63;7.32;;;14.70;99.90;;;;;;5036021;28;20259;-80
2022/04/06 10:53:59;;;;;;;14.38;7.15;;;15.10;99.90;;;;;;5041406;28;20253;-79
2022/04/06 10:56:24;;;;;;;12.55;6.85;;;15.50;99.90;;;;;;5037543;28;20204;-79
2022/04/06 10:58:56;;;;;;;14.98;8.57;;;15.30;99.90;;;;;;5030169;28;20213;-79
2022/04/06 11:01:31;;;;;;;11.70;7.35;;;15.30;99.90;;;;;;5032707;28;20228;-78
2022/04/06 11:04:04;;;;;;;11.90;6.78;;;15.20;99.90;;;;;;5036092;28;20225;-78
2022/04/06 11:06:48;;;;;;;12.02;6.65;;;15.00;99.90;;;;;;5044293;28;20190;-79
2022/04/06 11:12:30;;;;;;;10.68;6.57;;;14.20;99.90;;;;;;5080883;28;20205;-81
2022/04/06 11:14:59;;;;;;;9.65;6.20;;;13.80;99.90;;;;;;5077299;28;20203;-82
2022/04/06 11:17:42;;;;;;;9.30;5.88;;;13.50;99.90;;;;;;5082317;28;20274;-78
2022/04/06 11:20:29;;;;;;;10.40;6.10;;;13.40;99.90;;;;;;5084477;28;20538;-84
2022/04/06 11:22:57;;;;;;;12.02;6.97;;;13.50;99.90;;;;;;5083913;28;20584;-83
2022/04/06 11:25:28;;;;;;;10.87;6.63;;;13.50;99.90;;;;;;5087416;28;20222;-82
2022/04/06 11:27:55;;;;;;;10.40;6.43;;;13.30;99.90;;;;;;5082247;28;20194;-82
2022/04/06 11:30:26;;;;;;;9.57;5.87;;;13.10;99.90;;;;;;5078877;28;20198;-83
2022/04/06 11:32:56;;;;;;;11.80;7.00;;;13.10;99.90;;;;;;5080608;28;20797;-83
2022/04/06 11:35:31;;;;;;;14.40;5.77;;;13.00;99.90;;;;;;5080794;28;20213;-83
2022/04/06 11:37:57;;;;;;;12.87;6.60;;;13.00;99.90;;;;;;5080961;28;20214;-82
2022/04/06 11:40:25;;;;;;;12.50;7.30;;;13.00;99.90;;;;;;5081955;28;20225;-83
2022/04/06 11:42:52;;;;;;;14.63;7.43;;;12.90;99.90;;;;;;5083528;28;20182;-82
2022/04/06 11:45:20;;;;;;;12.93;7.23;;;12.80;99.90;;;;;;5081530;28;20255;-83
2022/04/06 11:48:02;;;;;;;11.33;6.10;;;12.70;99.90;;;;;;5073542;28;20280;-82
2022/04/06 11:50:29;;;;;;;12.50;6.90;;;12.60;99.90;;;;;;5080531;28;20213;-82
2022/04/06 11:52:55;;;;;;;12.63;7.40;;;12.60;99.90;;;;;;5081656;28;20329;-83
2022/04/06 11:55:20;;;;;;;14.80;7.17;;;12.60;99.90;;;;;;5081951;28;20233;-84
2022/04/06 11:57:46;;;;;;;12.70;6.93;;;12.60;99.90;;;;;;5081954;28;20701;-83
2022/04/06 12:00:13;;;;;;;11.97;6.80;;;12.50;99.90;;;;;;5081556;28;20194;-83
2022/04/06 12:02:46;;;;;;;14.00;7.60;;;12.50;99.90;;;;;;5082064;28;20207;-82
2022/04/06 12:05:12;;;;;;;11.17;7.30;;;12.40;99.90;;;;;;5086242;28;20199;-83
2022/04/06 12:07:37;;;;;;;10.33;6.73;;;12.40;99.90;;;;;;5092012;28;20715;-83
2022/04/06 12:10:03;;;;;;;10.13;6.70;;;12.30;99.90;;;;;;5091097;28;20564;-83
2022/04/06 12:12:30;;;;;;;12.43;6.63;;;12.30;99.90;;;;;;5084496;28;20180;-84
2022/04/06 12:14:56;;;;;;;11.07;6.30;;;12.30;99.90;;;;;;5091865;28;20210;-85
2022/04/06 12:17:22;;;;;;;10.77;6.23;;;12.40;99.90;;;;;;5088407;28;20222;-83
2022/04/06 12:19:48;;;;;;;10.20;6.33;;;12.50;99.90;;;;;;5085841;28;20215;-83
2022/04/06 12:22:13;;;;;;;8.70;6.33;;;12.50;99.90;;;;;;5080437;28;20215;-82
2022/04/06 12:24:41;;;;;;;11.43;6.63;;;12.50;99.90;;;;;;5089175;28;20259;-84
2022/04/06 12:27:07;;;;;;;10.57;6.37;;;12.40;99.90;;;;;;5089568;28;20195;-83
2022/04/06 12:29:35;;;;;;;10.60;6.07;;;12.50;99.90;;;;;;5093440;28;20207;-85
2022/04/06 12:32:04;;;;;;;11.67;6.67;;;12.60;99.90;;;;;;5089474;28;20203;-85
2022/04/06 12:34:37;;;;;;;11.00;7.13;;;12.50;99.90;;;;;;5090304;28;20209;-84
2022/04/06 12:39:54;;;;;;;10.83;7.07;;;12.50;99.90;;;;;;5070509;28;20206;-84
2022/04/06 12:42:21;;;;;;;12.40;6.33;;;12.60;99.90;;;;;;5087634;28;20167;-84
2022/04/06 12:44:55;;;;;;;9.93;6.57;;;12.50;99.90;;;;;;5069242;28;20262;-84
2022/04/06 12:47:23;;;;;;;10.80;5.87;;;12.60;99.90;;;;;;5084886;28;20209;-82
2022/04/06 12:49:49;;;;;;;8.90;6.23;;;12.60;99.90;;;;;;5086601;28;20217;-83
2022/04/06 12:52:16;;;;;;;10.07;6.10;;;12.70;99.90;;;;;;5088489;28;20231;-84